Terminal Aerodrome Forecast
Issued by NWS Omaha/Valley, NE

Home | Current Version | Previous Version | Text Only | Print | Product List | Glossary On
Versions: 1 2 3 4 5 6 7 8 9 10 11 12 13 14 15 16 17 18 19 20 21 22 23 24 25 26 27 28 29 30 31 32 33 34 35 36 37 38 39 40 41 42 43 44 45 46 47 48 49 50
000
FTUS43 KOAX 210910 AAD
TAFLNK
TAF AMD
KLNK 210910Z 2109/2206 18008KT P6SM OVC008
      TEMPO 2109/2112 4SM BR
     FM211200 19005KT P6SM OVC006
     FM211500 20011KT 5SM BR OVC012
     FM211700 20015G21KT P6SM OVC015=

USA.gov is the U.S. government's official web portal to all federal, state and local government web resources and services.